Time;durP1;ratioP1;P1;durP2;ratioP2;P2;SDS_P1;SDS_P2;PMS_P1;PMS_P2;Temp;Humidity;BMP_temperature;BMP_pressure;BME280_temperature;BME280_humidity;BME280_pressure;Samples;Min_cycle;Max_cycle;Signal;HPM_P1;HPM_P2
2023/08/27 00:00:35;;;;;;;6.63;4.70;;;;;;;;;;5014569;27;93562;-62
2023/08/27 00:03:02;;;;;;;13.13;5.65;;;;;;;;;;5016738;27;92677;-62
2023/08/27 00:05:28;;;;;;;5.13;4.68;;;;;;;;;;5011010;27;94833;-62
2023/08/27 00:07:55;;;;;;;6.45;4.90;;;;;;;;;;5011730;27;93455;-62
2023/08/27 00:10:21;;;;;;;6.75;4.88;;;;;;;;;;5012168;27;92735;-61
2023/08/27 00:12:47;;;;;;;6.32;4.53;;;;;;;;;;5021193;27;93570;-62
2023/08/27 00:15:14;;;;;;;6.53;5.00;;;;;;;;;;5015799;27;92304;-61
2023/08/27 00:17:41;;;;;;;7.85;5.03;;;;;;;;;;5021724;27;92397;-61
2023/08/27 00:20:09;;;;;;;7.15;5.03;;;;;;;;;;5022380;27;93376;-62
2023/08/27 00:22:37;;;;;;;8.57;4.60;;;;;;;;;;5015831;27;91939;-62
2023/08/27 00:25:03;;;;;;;6.07;4.65;;;;;;;;;;5015670;27;92773;-62
2023/08/27 00:27:30;;;;;;;8.45;5.25;;;;;;;;;;5015451;27;93403;-61
2023/08/27 00:29:56;;;;;;;10.95;4.78;;;;;;;;;;5013495;27;94986;-61
2023/08/27 00:32:22;;;;;;;5.45;4.93;;;;;;;;;;5014161;27;95846;-61
2023/08/27 00:34:51;;;;;;;7.35;4.72;;;;;;;;;;5017783;27;93503;-61
2023/08/27 00:37:18;;;;;;;5.30;4.80;;;;;;;;;;5015424;27;94108;-61
2023/08/27 00:39:44;;;;;;;6.80;4.70;;;;;;;;;;5015497;27;93832;-61
2023/08/27 00:42:10;;;;;;;7.30;5.25;;;;;;;;;;5018629;27;92563;-61
2023/08/27 00:44:37;;;;;;;11.52;5.25;;;;;;;;;;5015772;27;92484;-61
2023/08/27 00:47:04;;;;;;;10.90;5.20;;;;;;;;;;5018406;27;93139;-61
2023/08/27 00:49:30;;;;;;;7.70;5.03;;;;;;;;;;5015585;27;92355;-61
2023/08/27 00:51:58;;;;;;;7.80;5.22;;;;;;;;;;5014761;27;94116;-61
2023/08/27 00:54:24;;;;;;;8.70;4.93;;;;;;;;;;5017750;27;96833;-61
2023/08/27 00:56:51;;;;;;;4.88;4.47;;;;;;;;;;5017955;27;92940;-61
2023/08/27 00:59:17;;;;;;;10.85;5.07;;;;;;;;;;5018603;27;93365;-61
2023/08/27 01:01:44;;;;;;;4.57;4.18;;;;;;;;;;5014429;27;92547;-61
2023/08/27 01:04:10;;;;;;;9.30;4.95;;;;;;;;;;5015003;27;93526;-61
2023/08/27 01:06:37;;;;;;;6.22;4.53;;;;;;;;;;5014435;27;93470;-61
2023/08/27 01:09:13;;;;;;;8.27;4.57;;;;;;;;;;5014090;27;92381;-61
2023/08/27 01:11:59;;;;;;;7.03;4.97;;;;;;;;;;5017631;27;91837;-61
2023/08/27 01:14:27;;;;;;;5.78;4.82;;;;;;;;;;4990192;27;93546;-61
2023/08/27 01:16:55;;;;;;;6.47;5.25;;;;;;;;;;5016455;27;92468;-62
2023/08/27 01:19:22;;;;;;;11.15;5.32;;;;;;;;;;5016277;27;95088;-61
2023/08/27 01:21:48;;;;;;;5.93;4.60;;;;;;;;;;5016319;27;92463;-62
2023/08/27 01:24:15;;;;;;;5.25;4.72;;;;;;;;;;5013428;27;94150;-61
2023/08/27 01:26:44;;;;;;;6.80;4.97;;;;;;;;;;5015075;27;95973;-60
2023/08/27 01:29:15;;;;;;;6.10;4.45;;;;;;;;;;5013848;27;92417;-60
2023/08/27 01:31:47;;;;;;;5.97;4.60;;;;;;;;;;5018823;27;93518;-60
2023/08/27 01:34:14;;;;;;;7.72;4.57;;;;;;;;;;5014393;27;94370;-60
2023/08/27 01:36:41;;;;;;;7.10;4.90;;;;;;;;;;5019518;27;93119;-60
2023/08/27 01:39:11;;;;;;;8.23;5.32;;;;;;;;;;5014504;27;92593;-60
2023/08/27 01:41:37;;;;;;;8.23;4.75;;;;;;;;;;5020568;27;93714;-60
2023/08/27 01:44:04;;;;;;;4.95;4.32;;;;;;;;;;5016559;27;94806;-60
2023/08/27 01:46:30;;;;;;;6.10;4.85;;;;;;;;;;5018069;27;93436;-61
2023/08/27 01:48:57;;;;;;;8.05;5.03;;;;;;;;;;5014750;27;93186;-60
2023/08/27 01:51:23;;;;;;;5.20;4.68;;;;;;;;;;5014375;27;94345;-60
2023/08/27 01:53:49;;;;;;;8.13;4.90;;;;;;;;;;5014140;27;94457;-60
2023/08/27 01:56:16;;;;;;;6.40;4.60;;;;;;;;;;5013377;27;92510;-61
2023/08/27 01:58:42;;;;;;;6.82;4.63;;;;;;;;;;5014326;27;94283;-60
2023/08/27 02:01:10;;;;;;;4.50;4.10;;;;;;;;;;5016421;27;92996;-60
2023/08/27 02:03:37;;;;;;;5.95;4.32;;;;;;;;;;5026898;27;94935;-60
2023/08/27 02:06:03;;;;;;;4.65;3.90;;;;;;;;;;5015672;27;94382;-60
2023/08/27 02:08:29;;;;;;;6.05;4.13;;;;;;;;;;5019022;27;94916;-60
2023/08/27 02:10:57;;;;;;;5.32;3.92;;;;;;;;;;5013482;27;96531;-60
2023/08/27 02:13:23;;;;;;;6.32;4.28;;;;;;;;;;5013352;27;93419;-59
2023/08/27 02:15:49;;;;;;;5.18;4.10;;;;;;;;;;5018429;27;92800;-60
2023/08/27 02:18:16;;;;;;;9.60;4.65;;;;;;;;;;5017597;27;94578;-60
2023/08/27 02:20:43;;;;;;;4.82;4.20;;;;;;;;;;5012029;27;94413;-60
2023/08/27 02:23:09;;;;;;;5.70;3.50;;;;;;;;;;5016868;27;92427;-60
2023/08/27 02:25:36;;;;;;;4.25;3.60;;;;;;;;;;5013862;27;93638;-60
2023/08/27 02:28:03;;;;;;;6.53;3.67;;;;;;;;;;5013164;27;92968;-60
2023/08/27 02:30:29;;;;;;;3.78;3.40;;;;;;;;;;5014258;27;93432;-60
2023/08/27 02:32:55;;;;;;;4.15;3.20;;;;;;;;;;5015919;27;96791;-60
2023/08/27 02:35:22;;;;;;;6.43;3.95;;;;;;;;;;5012283;27;92827;-61
2023/08/27 02:37:48;;;;;;;5.30;3.80;;;;;;;;;;5012773;27;93825;-60
2023/08/27 02:40:17;;;;;;;7.32;3.67;;;;;;;;;;5013226;27;93697;-60
2023/08/27 02:42:43;;;;;;;6.72;3.75;;;;;;;;;;5012726;27;92440;-60
2023/08/27 02:45:09;;;;;;;4.38;3.97;;;;;;;;;;5016746;27;94088;-60
2023/08/27 02:47:36;;;;;;;6.70;4.13;;;;;;;;;;5017654;27;92350;-60
2023/08/27 02:50:03;;;;;;;6.10;3.80;;;;;;;;;;5013577;27;93222;-60
2023/08/27 02:52:29;;;;;;;5.25;3.95;;;;;;;;;;5021074;27;95528;-60
2023/08/27 02:54:55;;;;;;;5.35;3.90;;;;;;;;;;5013277;27;92362;-60
2023/08/27 02:57:22;;;;;;;6.90;4.10;;;;;;;;;;5011569;27;94845;-60
2023/08/27 02:59:48;;;;;;;7.50;3.38;;;;;;;;;;5013135;27;93364;-60
2023/08/27 03:02:14;;;;;;;6.68;3.72;;;;;;;;;;5012157;27;95236;-60
2023/08/27 03:04:41;;;;;;;10.52;3.92;;;;;;;;;;5017413;27;94146;-60
2023/08/27 03:07:07;;;;;;;10.40;3.83;;;;;;;;;;5016309;27;94896;-60
2023/08/27 03:09:34;;;;;;;3.90;2.88;;;;;;;;;;5020727;27;93119;-60
2023/08/27 03:12:00;;;;;;;3.38;2.85;;;;;;;;;;5013543;28;93396;-60
2023/08/27 03:14:27;;;;;;;3.83;3.33;;;;;;;;;;5017486;27;91628;-60
2023/08/27 03:16:53;;;;;;;5.65;3.45;;;;;;;;;;5017397;27;92876;-60
2023/08/27 03:19:19;;;;;;;3.33;3.05;;;;;;;;;;5012325;27;93273;-60
2023/08/27 03:21:46;;;;;;;4.50;3.10;;;;;;;;;;5014704;27;95343;-60
2023/08/27 03:24:12;;;;;;;8.18;3.78;;;;;;;;;;5012853;27;95584;-59
2023/08/27 03:26:39;;;;;;;11.25;3.08;;;;;;;;;;5014158;27;93430;-60
2023/08/27 03:29:05;;;;;;;6.65;3.75;;;;;;;;;;5017778;27;92430;-60
2023/08/27 03:31:31;;;;;;;8.52;3.95;;;;;;;;;;5012810;27;93408;-60
2023/08/27 03:33:58;;;;;;;4.97;4.00;;;;;;;;;;5012804;27;92659;-60
2023/08/27 03:36:24;;;;;;;5.03;3.70;;;;;;;;;;5012569;27;94143;-60
2023/08/27 03:38:51;;;;;;;10.35;4.50;;;;;;;;;;5012976;27;94038;-60
2023/08/27 03:41:17;;;;;;;6.85;4.75;;;;;;;;;;5015673;27;92535;-60
2023/08/27 03:43:43;;;;;;;6.30;4.38;;;;;;;;;;5013289;27;93203;-60
2023/08/27 03:46:10;;;;;;;11.63;5.38;;;;;;;;;;5012480;27;95733;-60
2023/08/27 03:48:37;;;;;;;7.68;5.43;;;;;;;;;;5016852;27;93124;-61
2023/08/27 03:51:03;;;;;;;8.00;4.78;;;;;;;;;;5018858;27;92907;-61
2023/08/27 03:53:29;;;;;;;9.75;4.82;;;;;;;;;;5015697;27;92530;-61
2023/08/27 03:55:56;;;;;;;10.73;4.93;;;;;;;;;;5015562;27;93057;-61
2023/08/27 03:58:22;;;;;;;11.73;5.57;;;;;;;;;;5015718;27;93277;-61
2023/08/27 04:00:49;;;;;;;8.27;5.00;;;;;;;;;;5016153;27;92515;-61
2023/08/27 04:03:16;;;;;;;10.75;4.75;;;;;;;;;;5015759;27;93327;-61
2023/08/27 04:05:42;;;;;;;7.97;5.13;;;;;;;;;;5014789;27;93161;-61
2023/08/27 04:08:09;;;;;;;9.52;5.15;;;;;;;;;;5016237;27;92938;-61
2023/08/27 04:10:35;;;;;;;6.07;5.13;;;;;;;;;;5014082;27;94868;-62
2023/08/27 04:13:01;;;;;;;7.38;4.68;;;;;;;;;;5018154;27;93358;-61
2023/08/27 04:15:28;;;;;;;6.95;4.85;;;;;;;;;;5019504;27;93500;-61
2023/08/27 04:17:54;;;;;;;9.68;4.85;;;;;;;;;;5019867;27;93584;-61
2023/08/27 04:20:21;;;;;;;7.80;4.60;;;;;;;;;;5016542;27;92555;-61
2023/08/27 04:22:47;;;;;;;20.08;5.10;;;;;;;;;;5015208;27;93134;-61
2023/08/27 04:25:14;;;;;;;16.15;5.40;;;;;;;;;;5015598;27;93424;-61
2023/08/27 04:27:40;;;;;;;6.40;5.03;;;;;;;;;;5016183;27;91665;-62
2023/08/27 04:30:07;;;;;;;10.82;5.45;;;;;;;;;;5015072;27;92528;-61
2023/08/27 04:32:33;;;;;;;9.98;5.20;;;;;;;;;;5017810;27;93393;-61
2023/08/27 04:35:00;;;;;;;10.20;5.38;;;;;;;;;;5014070;27;95495;-61
2023/08/27 04:37:26;;;;;;;7.25;5.25;;;;;;;;;;5015417;27;93912;-61
2023/08/27 04:39:52;;;;;;;8.25;4.68;;;;;;;;;;5013489;27;92575;-62
2023/08/27 04:42:19;;;;;;;11.27;4.75;;;;;;;;;;5014380;27;93125;-63
2023/08/27 04:44:45;;;;;;;10.80;4.30;;;;;;;;;;5014890;27;93522;-61
2023/08/27 04:47:12;;;;;;;7.75;4.32;;;;;;;;;;5015875;27;92498;-61
2023/08/27 04:49:38;;;;;;;7.40;4.40;;;;;;;;;;5018544;27;93365;-61
2023/08/27 04:52:04;;;;;;;7.78;3.88;;;;;;;;;;5014793;27;92339;-61
2023/08/27 04:54:41;;;;;;;7.90;4.32;;;;;;;;;;5018316;27;92663;-61
2023/08/27 04:57:07;;;;;;;8.77;4.30;;;;;;;;;;5018677;27;94695;-62
2023/08/27 04:59:33;;;;;;;5.38;3.42;;;;;;;;;;5012005;27;94961;-60
2023/08/27 05:02:00;;;;;;;11.18;4.22;;;;;;;;;;5018967;27;96617;-61
2023/08/27 05:04:28;;;;;;;5.80;3.60;;;;;;;;;;5015094;27;93443;-60
2023/08/27 05:06:54;;;;;;;9.35;3.50;;;;;;;;;;5014647;27;92516;-61
2023/08/27 05:09:20;;;;;;;4.47;2.85;;;;;;;;;;5014182;27;93002;-61
2023/08/27 05:11:47;;;;;;;7.15;3.38;;;;;;;;;;5019058;27;94414;-62
2023/08/27 05:14:13;;;;;;;5.07;3.15;;;;;;;;;;5013328;27;92364;-61
2023/08/27 05:16:39;;;;;;;7.75;3.25;;;;;;;;;;5018470;27;93062;-62
2023/08/27 05:19:06;;;;;;;6.40;2.65;;;;;;;;;;5013989;27;92505;-61
2023/08/27 05:21:32;;;;;;;7.05;3.13;;;;;;;;;;5018256;27;94388;-60
2023/08/27 05:23:58;;;;;;;7.30;3.25;;;;;;;;;;5012531;27;95794;-63
2023/08/27 05:26:25;;;;;;;12.05;3.65;;;;;;;;;;5021466;27;92576;-59
2023/08/27 05:28:51;;;;;;;5.90;3.08;;;;;;;;;;5019331;27;94592;-59
2023/08/27 05:31:18;;;;;;;7.70;3.45;;;;;;;;;;5014416;27;94437;-59
2023/08/27 05:33:44;;;;;;;14.23;3.70;;;;;;;;;;5014216;27;92483;-62
2023/08/27 05:36:10;;;;;;;5.85;2.90;;;;;;;;;;5013646;27;93351;-60
2023/08/27 05:38:37;;;;;;;6.07;3.33;;;;;;;;;;5025073;27;95240;-62
2023/08/27 05:41:03;;;;;;;7.18;3.67;;;;;;;;;;5014067;27;93184;-59
2023/08/27 05:43:29;;;;;;;7.22;3.22;;;;;;;;;;5018308;27;93417;-62
2023/08/27 05:45:56;;;;;;;5.22;3.30;;;;;;;;;;5013929;27;92517;-61
2023/08/27 05:48:22;;;;;;;5.03;3.00;;;;;;;;;;5030343;27;95248;-61
2023/08/27 05:50:49;;;;;;;6.50;3.35;;;;;;;;;;5013910;27;93077;-61
2023/08/27 05:53:15;;;;;;;6.85;3.00;;;;;;;;;;5013772;27;92687;-61
2023/08/27 05:55:43;;;;;;;4.45;2.90;;;;;;;;;;5013589;27;94225;-61
2023/08/27 05:58:09;;;;;;;3.88;2.83;;;;;;;;;;5013552;27;93408;-61
2023/08/27 06:00:36;;;;;;;5.22;3.13;;;;;;;;;;5017070;27;92527;-61
2023/08/27 06:03:03;;;;;;;4.57;3.20;;;;;;;;;;5013496;27;94031;-59
2023/08/27 06:05:30;;;;;;;8.20;3.38;;;;;;;;;;5014604;27;91777;-59
2023/08/27 06:07:58;;;;;;;3.92;3.10;;;;;;;;;;5013786;27;92371;-60
2023/08/27 06:10:25;;;;;;;4.10;3.30;;;;;;;;;;5017640;27;93524;-60
2023/08/27 06:12:51;;;;;;;4.03;3.40;;;;;;;;;;5011917;27;94824;-60
2023/08/27 06:15:18;;;;;;;7.63;3.90;;;;;;;;;;5016829;27;95838;-60
2023/08/27 06:17:44;;;;;;;4.90;3.38;;;;;;;;;;5016208;27;94574;-62
2023/08/27 06:20:11;;;;;;;4.50;3.20;;;;;;;;;;5028934;27;92612;-62
2023/08/27 06:22:37;;;;;;;7.07;3.50;;;;;;;;;;5020339;27;93158;-63
2023/08/27 06:25:03;;;;;;;6.72;3.92;;;;;;;;;;5013450;27;92448;-62
2023/08/27 06:27:30;;;;;;;9.05;4.05;;;;;;;;;;5021274;27;93114;-60
2023/08/27 06:29:56;;;;;;;10.15;3.80;;;;;;;;;;5014411;27;92698;-63
2023/08/27 06:32:22;;;;;;;5.75;3.42;;;;;;;;;;5017240;27;92637;-60
2023/08/27 06:34:49;;;;;;;9.18;3.97;;;;;;;;;;5011442;27;94172;-59
2023/08/27 06:37:15;;;;;;;5.70;3.85;;;;;;;;;;5015828;27;94972;-60
2023/08/27 06:39:41;;;;;;;13.80;4.07;;;;;;;;;;5012676;27;92926;-60
2023/08/27 06:42:08;;;;;;;8.80;3.95;;;;;;;;;;5015211;27;93179;-61
2023/08/27 06:44:34;;;;;;;8.43;4.40;;;;;;;;;;5017128;27;92545;-60
2023/08/27 06:47:00;;;;;;;10.18;4.60;;;;;;;;;;5015057;27;93508;-62
2023/08/27 06:49:27;;;;;;;9.18;4.35;;;;;;;;;;5017432;27;92347;-62
2023/08/27 06:51:53;;;;;;;10.90;4.40;;;;;;;;;;5012681;27;92414;-62
2023/08/27 06:54:19;;;;;;;11.02;5.40;;;;;;;;;;5015463;27;91859;-62
2023/08/27 06:56:46;;;;;;;9.63;5.13;;;;;;;;;;5019211;27;93795;-62
2023/08/27 06:59:12;;;;;;;10.77;4.80;;;;;;;;;;5013166;27;92642;-62
2023/08/27 07:01:39;;;;;;;7.22;4.85;;;;;;;;;;5015504;27;95002;-62
2023/08/27 07:04:05;;;;;;;11.10;4.88;;;;;;;;;;5014146;27;93480;-63
2023/08/27 07:06:32;;;;;;;7.13;4.57;;;;;;;;;;5013057;27;93067;-63
2023/08/27 07:08:58;;;;;;;7.78;5.22;;;;;;;;;;5012702;27;93492;-63
2023/08/27 07:11:24;;;;;;;13.25;5.22;;;;;;;;;;5021246;27;92459;-62
2023/08/27 07:13:51;;;;;;;4.68;4.28;;;;;;;;;;5012521;27;94145;-60
2023/08/27 07:16:20;;;;;;;7.85;5.20;;;;;;;;;;5013802;27;93661;-63
2023/08/27 07:18:47;;;;;;;10.38;6.30;;;;;;;;;;5018103;27;91687;-62
2023/08/27 07:21:13;;;;;;;15.05;6.68;;;;;;;;;;5012922;27;93410;-62
2023/08/27 07:23:39;;;;;;;11.82;6.78;;;;;;;;;;5015279;27;93456;-62
2023/08/27 07:26:06;;;;;;;14.05;7.07;;;;;;;;;;5017853;27;94795;-61
2023/08/27 07:28:32;;;;;;;13.00;7.10;;;;;;;;;;5024208;27;93814;-61
2023/08/27 07:30:59;;;;;;;14.05;8.35;;;;;;;;;;5016449;27;92536;-61
2023/08/27 07:33:26;;;;;;;12.98;7.88;;;;;;;;;;5020250;27;93201;-61
2023/08/27 07:35:52;;;;;;;13.50;9.85;;;;;;;;;;5015316;27;93309;-61
2023/08/27 07:38:18;;;;;;;17.88;10.07;;;;;;;;;;5016280;27;92379;-60
2023/08/27 07:40:45;;;;;;;14.63;9.88;;;;;;;;;;5019449;27;94158;-60
2023/08/27 07:43:12;;;;;;;14.93;9.57;;;;;;;;;;5015465;27;92684;-61
2023/08/27 07:45:38;;;;;;;13.75;9.48;;;;;;;;;;5033583;27;93188;-60
2023/08/27 07:48:05;;;;;;;26.23;10.55;;;;;;;;;;5021029;27;93153;-61
2023/08/27 07:50:31;;;;;;;13.32;9.35;;;;;;;;;;5012328;27;95014;-61
2023/08/27 07:52:57;;;;;;;17.90;10.07;;;;;;;;;;5015481;27;96729;-61
2023/08/27 07:55:23;;;;;;;15.45;10.00;;;;;;;;;;5015209;27;93470;-61
2023/08/27 07:57:50;;;;;;;16.02;10.00;;;;;;;;;;5019030;27;92306;-61
2023/08/27 08:00:18;;;;;;;14.63;10.48;;;;;;;;;;5015098;27;93081;-61
2023/08/27 08:02:44;;;;;;;12.32;9.70;;;;;;;;;;5015471;27;94434;-60
2023/08/27 08:05:11;;;;;;;22.15;10.05;;;;;;;;;;5019516;27;92481;-62
2023/08/27 08:07:38;;;;;;;14.63;9.90;;;;;;;;;;5015055;27;93176;-61
2023/08/27 08:10:04;;;;;;;18.20;10.05;;;;;;;;;;5017599;27;93322;-61
2023/08/27 08:12:31;;;;;;;16.55;9.85;;;;;;;;;;5013945;27;94240;-61
2023/08/27 08:14:57;;;;;;;14.18;9.45;;;;;;;;;;5013631;27;95972;-61
2023/08/27 08:17:23;;;;;;;18.67;9.07;;;;;;;;;;5020116;27;92601;-61
2023/08/27 08:20:10;;;;;;;17.67;9.23;;;;;;;;;;5028323;27;95633;-61
2023/08/27 08:22:36;;;;;;;11.68;8.35;;;;;;;;;;5023194;27;94436;-60
2023/08/27 08:25:03;;;;;;;13.80;8.75;;;;;;;;;;5015538;27;92576;-60
2023/08/27 08:27:29;;;;;;;15.95;9.10;;;;;;;;;;5015015;27;93170;-61
2023/08/27 08:29:55;;;;;;;15.00;8.60;;;;;;;;;;5015781;27;93860;-61
2023/08/27 08:32:22;;;;;;;16.65;9.55;;;;;;;;;;5022836;27;91672;-61
2023/08/27 08:34:48;;;;;;;17.17;9.45;;;;;;;;;;5015043;27;93407;-61
2023/08/27 08:37:15;;;;;;;10.13;7.95;;;;;;;;;;5014979;27;92444;-61
2023/08/27 08:39:41;;;;;;;12.52;8.02;;;;;;;;;;5013946;27;94927;-61
2023/08/27 08:42:26;;;;;;;10.80;8.27;;;;;;;;;;5014763;27;93572;-61
2023/08/27 08:45:08;;;;;;;15.10;8.73;;;;;;;;;;5015120;27;92397;-61
2023/08/27 08:47:35;;;;;;;17.40;9.93;;;;;;;;;;5016854;27;93430;-61
2023/08/27 08:50:04;;;;;;;26.73;20.00;;;;;;;;;;5014992;27;93436;-61
2023/08/27 08:52:34;;;;;;;14.98;9.00;;;;;;;;;;5016834;27;92524;-61
2023/08/27 08:55:01;;;;;;;9.93;7.60;;;;;;;;;;5015194;27;94396;-61
2023/08/27 08:57:29;;;;;;;15.55;8.63;;;;;;;;;;5019497;27;91683;-61
2023/08/27 08:59:55;;;;;;;13.13;7.35;;;;;;;;;;5015076;27;92705;-61
2023/08/27 09:02:22;;;;;;;12.95;7.47;;;;;;;;;;5015083;27;93374;-61
2023/08/27 09:04:48;;;;;;;11.15;5.95;;;;;;;;;;5013481;27;95051;-61
2023/08/27 09:07:16;;;;;;;6.18;5.10;;;;;;;;;;5023193;27;95548;-61
2023/08/27 09:09:42;;;;;;;8.07;5.30;;;;;;;;;;5021785;27;93361;-61
2023/08/27 09:12:09;;;;;;;9.57;5.32;;;;;;;;;;5014981;27;92317;-62
2023/08/27 09:14:37;;;;;;;12.57;5.72;;;;;;;;;;5017554;27;94190;-61
2023/08/27 09:17:05;;;;;;;10.18;5.30;;;;;;;;;;5019580;27;92815;-61
2023/08/27 09:19:32;;;;;;;6.85;4.53;;;;;;;;;;5014401;27;93111;-61
2023/08/27 09:21:58;;;;;;;9.48;6.63;;;;;;;;;;5016539;27;93627;-60
2023/08/27 09:24:24;;;;;;;12.23;6.45;;;;;;;;;;5014790;27;92431;-61
2023/08/27 09:26:51;;;;;;;12.05;6.68;;;;;;;;;;5016075;27;93480;-60
2023/08/27 09:29:17;;;;;;;11.98;6.68;;;;;;;;;;5015110;27;96239;-60
2023/08/27 09:31:45;;;;;;;6.97;3.88;;;;;;;;;;5014695;27;92478;-60
2023/08/27 09:34:13;;;;;;;4.95;4.00;;;;;;;;;;5018373;27;93119;-61
2023/08/27 09:36:39;;;;;;;4.65;3.03;;;;;;;;;;5017946;27;94221;-60
2023/08/27 09:39:09;;;;;;;9.10;2.85;;;;;;;;;;5017728;27;92385;-60
2023/08/27 09:41:37;;;;;;;5.22;1.98;;;;;;;;;;5018153;27;92459;-60
2023/08/27 09:44:03;;;;;;;2.75;2.33;;;;;;;;;;5013301;27;93185;-61
2023/08/27 09:46:29;;;;;;;2.72;2.40;;;;;;;;;;5015073;27;93514;-61
2023/08/27 09:49:04;;;;;;;2.60;2.10;;;;;;;;;;5013937;27;94408;-60
2023/08/27 09:51:31;;;;;;;3.70;2.60;;;;;;;;;;5014096;27;92959;-61
2023/08/27 09:53:58;;;;;;;4.57;2.22;;;;;;;;;;5016580;27;94879;-61
2023/08/27 09:56:25;;;;;;;3.30;2.13;;;;;;;;;;5014725;27;92493;-60
2023/08/27 09:58:53;;;;;;;6.45;2.70;;;;;;;;;;5016425;27;92602;-61
2023/08/27 10:01:23;;;;;;;5.75;2.65;;;;;;;;;;5017815;27;93336;-61
2023/08/27 10:03:49;;;;;;;;;;;;;;;;;;5031671;27;93516;-60
2023/08/27 10:06:16;;;;;;;3.60;2.20;;;;;;;;;;5014801;27;122112;-61
2023/08/27 10:08:49;;;;;;;2.25;1.77;;;;;;;;;;5018075;27;93381;-61
2023/08/27 10:11:16;;;;;;;3.05;1.75;;;;;;;;;;5014953;27;91811;-61
2023/08/27 10:13:43;;;;;;;2.53;1.90;;;;;;;;;;5013368;27;92498;-61
2023/08/27 10:16:10;;;;;;;3.50;1.70;;;;;;;;;;5015807;27;93361;-61
2023/08/27 10:18:37;;;;;;;4.45;2.00;;;;;;;;;;5017016;27;95324;-61
2023/08/27 10:21:04;;;;;;;5.70;2.10;;;;;;;;;;5019631;27;95494;-61
2023/08/27 10:23:32;;;;;;;3.40;2.03;;;;;;;;;;5023812;27;93145;-61
2023/08/27 10:25:59;;;;;;;3.90;1.52;;;;;;;;;;5013640;27;93360;-61
2023/08/27 10:28:26;;;;;;;4.32;1.50;;;;;;;;;;5012429;27;93469;-61
2023/08/27 10:30:53;;;;;;;3.13;1.50;;;;;;;;;;5017772;27;92649;-61
2023/08/27 10:33:19;;;;;;;3.90;1.60;;;;;;;;;;5012751;27;92932;-61
2023/08/27 10:35:47;;;;;;;2.47;1.67;;;;;;;;;;5013754;27;93677;-61
2023/08/27 10:38:15;;;;;;;3.88;1.60;;;;;;;;;;5017448;27;93752;-61
2023/08/27 10:40:43;;;;;;;2.78;1.45;;;;;;;;;;5016180;27;93099;-61
2023/08/27 10:43:20;;;;;;;3.92;1.40;;;;;;;;;;5011339;27;96085;-60
2023/08/27 10:45:49;;;;;;;2.40;1.27;;;;;;;;;;5012798;27;95799;-61
2023/08/27 10:48:16;;;;;;;2.65;1.15;;;;;;;;;;5015998;27;93355;-61
2023/08/27 10:50:44;;;;;;;3.60;1.30;;;;;;;;;;5018099;27;92952;-62
2023/08/27 10:53:11;;;;;;;1.30;1.20;;;;;;;;;;5011210;27;93076;-62
2023/08/27 10:55:37;;;;;;;2.58;1.30;;;;;;;;;;5013321;27;93404;-61
2023/08/27 10:58:16;;;;;;;6.18;1.50;;;;;;;;;;5016290;27;92443;-62
2023/08/27 11:01:02;;;;;;;4.47;1.60;;;;;;;;;;5014366;27;93289;-61
2023/08/27 11:03:49;;;;;;;2.45;1.42;;;;;;;;;;5015847;27;97135;-62
2023/08/27 11:06:15;;;;;;;3.17;1.33;;;;;;;;;;5017200;27;93094;-62
2023/08/27 11:08:42;;;;;;;3.15;1.63;;;;;;;;;;5010719;27;96177;-62
2023/08/27 11:11:14;;;;;;;1.50;1.10;;;;;;;;;;5020093;27;92550;-62
2023/08/27 11:13:46;;;;;;;4.65;1.40;;;;;;;;;;5012750;27;93213;-62
2023/08/27 11:16:15;;;;;;;5.43;1.40;;;;;;;;;;5015905;27;93388;-62
2023/08/27 11:18:49;;;;;;;2.53;1.00;;;;;;;;;;5012556;27;92639;-62
2023/08/27 11:21:19;;;;;;;3.25;1.40;;;;;;;;;;5014374;27;93123;-61
2023/08/27 11:23:45;;;;;;;;;;;;;;;;;;5012857;27;94260;-62
2023/08/27 11:26:12;;;;;;;2.45;1.13;;;;;;;;;;5017015;27;118403;-62
2023/08/27 11:28:42;;;;;;;2.13;1.20;;;;;;;;;;5015523;27;93365;-62
2023/08/27 11:31:09;;;;;;;1.02;0.93;;;;;;;;;;5017074;27;95539;-62
2023/08/27 11:33:35;;;;;;;2.33;1.40;;;;;;;;;;5011344;27;94947;-62
2023/08/27 11:36:02;;;;;;;1.90;1.10;;;;;;;;;;5016712;27;93398;-62
2023/08/27 11:38:28;;;;;;;2.30;1.10;;;;;;;;;;5012951;27;92561;-61
2023/08/27 11:40:57;;;;;;;2.28;1.30;;;;;;;;;;5019564;27;93658;-62
2023/08/27 11:43:24;;;;;;;2.10;1.13;;;;;;;;;;5011431;27;93430;-61
2023/08/27 11:45:51;;;;;;;2.25;0.80;;;;;;;;;;5012627;27;92478;-61
2023/08/27 11:48:17;;;;;;;9.10;1.30;;;;;;;;;;5026901;27;92533;-61
2023/08/27 11:50:47;;;;;;;4.70;1.45;;;;;;;;;;5013640;27;91737;-61
2023/08/27 11:53:13;;;;;;;1.05;0.90;;;;;;;;;;5012434;27;93355;-61
2023/08/27 11:55:40;;;;;;;2.35;1.10;;;;;;;;;;5016808;27;94423;-62
2023/08/27 11:58:06;;;;;;;0.98;0.90;;;;;;;;;;5010926;27;94891;-61
2023/08/27 12:00:33;;;;;;;1.98;1.10;;;;;;;;;;5012092;27;95447;-61
2023/08/27 12:03:00;;;;;;;1.40;0.80;;;;;;;;;;5011352;27;93424;-61
2023/08/27 12:05:27;;;;;;;2.45;0.90;;;;;;;;;;5011887;27;92531;-61
2023/08/27 12:07:53;;;;;;;1.80;1.10;;;;;;;;;;5012566;27;92645;-62
2023/08/27 12:10:21;;;;;;;2.70;1.13;;;;;;;;;;5018206;27;94394;-62
2023/08/27 12:12:49;;;;;;;2.42;0.80;;;;;;;;;;5015757;27;93099;-61
2023/08/27 12:15:15;;;;;;;3.80;0.77;;;;;;;;;;5015312;27;95798;-62
2023/08/27 12:17:42;;;;;;;1.40;0.82;;;;;;;;;;5020334;27;92596;-62
2023/08/27 12:20:10;;;;;;;1.15;0.70;;;;;;;;;;5017640;27;93186;-61
2023/08/27 12:22:40;;;;;;;2.63;0.90;;;;;;;;;;5013980;27;96806;-62
2023/08/27 12:25:06;;;;;;;1.27;0.90;;;;;;;;;;5035136;27;93360;-61
2023/08/27 12:27:32;;;;;;;2.17;0.95;;;;;;;;;;5026231;27;94380;-61
2023/08/27 12:29:59;;;;;;;2.28;0.75;;;;;;;;;;5014788;27;92395;-61
2023/08/27 12:32:29;;;;;;;2.15;0.80;;;;;;;;;;5020496;27;92685;-62
2023/08/27 12:34:55;;;;;;;1.10;0.65;;;;;;;;;;5015131;27;93251;-61
2023/08/27 12:37:22;;;;;;;1.65;0.80;;;;;;;;;;5015176;27;92621;-62
2023/08/27 12:39:50;;;;;;;2.88;1.05;;;;;;;;;;5016147;27;94653;-61
2023/08/27 12:42:17;;;;;;;1.67;0.90;;;;;;;;;;5014469;27;93521;-61
2023/08/27 12:44:44;;;;;;;1.42;0.70;;;;;;;;;;5015436;27;93200;-61
2023/08/27 12:47:14;;;;;;;0.98;0.70;;;;;;;;;;5017492;27;95639;-62
2023/08/27 12:49:43;;;;;;;5.32;1.15;;;;;;;;;;5014131;27;93395;-62
2023/08/27 12:52:09;;;;;;;1.40;0.80;;;;;;;;;;5022097;27;93070;-62
2023/08/27 12:54:36;;;;;;;2.97;0.73;;;;;;;;;;5014419;27;93495;-62
2023/08/27 12:57:02;;;;;;;3.42;0.90;;;;;;;;;;5013817;27;92556;-59
2023/08/27 12:59:29;;;;;;;0.77;0.32;;;;;;;;;;5019219;27;94202;-59
2023/08/27 13:01:55;;;;;;;1.35;0.60;;;;;;;;;;5014493;27;93411;-60
2023/08/27 13:04:22;;;;;;;1.38;0.70;;;;;;;;;;5014804;27;91604;-60
2023/08/27 13:06:49;;;;;;;1.77;0.80;;;;;;;;;;5014789;27;92349;-59
2023/08/27 13:09:18;;;;;;;1.02;0.82;;;;;;;;;;5014925;27;92859;-59
2023/08/27 13:11:45;;;;;;;2.03;0.80;;;;;;;;;;5013266;27;94929;-59
2023/08/27 13:14:11;;;;;;;1.08;0.70;;;;;;;;;;5020800;27;95453;-59
2023/08/27 13:16:38;;;;;;;1.88;0.88;;;;;;;;;;5018091;27;92529;-59
2023/08/27 13:19:05;;;;;;;4.05;0.70;;;;;;;;;;5014284;27;94181;-59
2023/08/27 13:21:32;;;;;;;1.67;0.80;;;;;;;;;;5020126;27;93443;-59
2023/08/27 13:23:59;;;;;;;2.63;0.82;;;;;;;;;;5014023;27;92539;-59
2023/08/27 13:26:25;;;;;;;1.92;0.90;;;;;;;;;;5014658;27;94119;-59
2023/08/27 13:28:52;;;;;;;1.00;0.80;;;;;;;;;;5015136;27;93736;-59
2023/08/27 13:31:18;;;;;;;1.33;0.68;;;;;;;;;;5014433;27;92617;-59
2023/08/27 13:33:44;;;;;;;1.63;1.00;;;;;;;;;;5014915;27;93063;-59
2023/08/27 13:36:11;;;;;;;1.52;0.90;;;;;;;;;;5019556;27;95808;-59
2023/08/27 13:38:38;;;;;;;2.22;0.80;;;;;;;;;;5014293;27;95441;-61
2023/08/27 13:41:04;;;;;;;4.30;1.13;;;;;;;;;;5026491;27;95334;-61
2023/08/27 13:43:31;;;;;;;1.95;1.20;;;;;;;;;;5014048;27;92566;-61
2023/08/27 13:45:57;;;;;;;1.65;0.98;;;;;;;;;;5018502;27;93033;-61
2023/08/27 13:48:24;;;;;;;3.53;1.17;;;;;;;;;;5017415;27;93366;-61
2023/08/27 13:50:50;;;;;;;3.25;1.23;;;;;;;;;;5014431;27;92520;-60
2023/08/27 13:53:17;;;;;;;5.47;1.20;;;;;;;;;;5017952;27;93164;-61
2023/08/27 13:55:44;;;;;;;5.80;1.20;;;;;;;;;;5014083;27;93390;-61
2023/08/27 13:58:10;;;;;;;3.33;1.33;;;;;;;;;;5020566;27;92370;-60
2023/08/27 14:00:36;;;;;;;1.42;1.20;;;;;;;;;;5012204;27;95820;-60
2023/08/27 14:03:03;;;;;;;3.35;1.30;;;;;;;;;;5013853;27;92548;-60
2023/08/27 14:05:29;;;;;;;3.75;1.48;;;;;;;;;;5012926;27;93221;-60
2023/08/27 14:07:56;;;;;;;4.78;1.92;;;;;;;;;;5013547;27;93367;-60
2023/08/27 14:10:22;;;;;;;6.18;1.83;;;;;;;;;;5013934;27;92445;-60
2023/08/27 14:12:49;;;;;;;8.70;1.63;;;;;;;;;;5013627;27;93110;-60
2023/08/27 14:15:15;;;;;;;2.38;1.20;;;;;;;;;;5012936;27;93492;-60
2023/08/27 14:17:42;;;;;;;5.80;1.83;;;;;;;;;;5018326;27;91857;-60
2023/08/27 14:20:08;;;;;;;3.95;1.58;;;;;;;;;;5019554;27;92995;-60
2023/08/27 14:22:35;;;;;;;2.97;1.58;;;;;;;;;;5017355;27;92553;-60
2023/08/27 14:25:04;;;;;;;11.60;1.55;;;;;;;;;;5015733;27;94898;-60
2023/08/27 14:27:30;;;;;;;3.88;1.65;;;;;;;;;;5012783;27;93232;-60
2023/08/27 14:29:57;;;;;;;7.10;1.25;;;;;;;;;;5021864;27;95361;-60
2023/08/27 14:32:23;;;;;;;3.92;1.30;;;;;;;;;;5017861;27;93499;-60
2023/08/27 14:34:50;;;;;;;2.45;1.60;;;;;;;;;;5013287;27;94993;-61
2023/08/27 14:37:16;;;;;;;3.35;1.60;;;;;;;;;;5012770;27;92688;-60
2023/08/27 14:39:43;;;;;;;6.82;2.67;;;;;;;;;;5013559;27;93094;-60